Terminal Aerodrome Forecast
Issued by NWS Raleigh/Durham, NC

Home | Current Version | Previous Version | Text Only | Print | Product List | Glossary On
Versions: 1 2 3 4 5 6 7 8 9 10 11 12 13 14 15 16 17 18 19 20 21 22 23 24 25 26 27 28 29 30 31 32 33 34 35 36 37 38 39 40 41 42 43 44 45 46 47 48 49 50
000
FTUS42 KRAH 222335
TAFRDU
TAF
KRDU 222335Z 2300/2324 07010KT 1SM BR VCSH OVC003
      TEMPO 2300/2303 3SM SHRA BR OVC005
     FM230300 09013KT 2SM -SHRA BR OVC004
     FM230800 19012KT 3SM BR BKN020
      TEMPO 2308/2312 1SM BR OVC005
     FM231300 24006KT P6SM SCT015 BKN030=

USA.gov is the U.S. government's official web portal to all federal, state and local government web resources and services.